Time;durP1;ratioP1;P1;durP2;ratioP2;P2;SDS_P1;SDS_P2;PMS_P1;PMS_P2;Temp;Humidity;BMP_temperature;BMP_pressure;BME280_temperature;BME280_humidity;BME280_pressure;Samples;Min_cycle;Max_cycle;Signal;HPM_P1;HPM_P2
2024/01/26 00:01:25;;;;;;;;;;;8.60;99.90;;;;;;5130101;27;20152;-69
2024/01/26 00:03:51;;;;;;;;;;;8.60;99.90;;;;;;5111988;27;20334;-69
2024/01/26 00:06:17;;;;;;;;;;;8.70;99.90;;;;;;5131475;27;19929;-69
2024/01/26 00:08:42;;;;;;;;;;;8.70;99.90;;;;;;5130474;27;19928;-69
2024/01/26 00:11:15;;;;;;;;;;;8.70;99.90;;;;;;5111910;27;20280;-69
2024/01/26 00:13:40;;;;;;;;;;;8.70;99.90;;;;;;5128611;27;19970;-69
2024/01/26 00:16:06;;;;;;;;;;;8.70;99.90;;;;;;5112171;27;19970;-69
2024/01/26 00:18:31;;;;;;;;;;;8.80;99.90;;;;;;5130527;27;19934;-69
2024/01/26 00:20:57;;;;;;;;;;;8.80;99.90;;;;;;5129594;27;19931;-69
2024/01/26 00:23:22;;;;;;;;;;;8.80;99.90;;;;;;5119593;27;20600;-68
2024/01/26 00:25:48;;;;;;;;;;;8.80;99.90;;;;;;5129317;27;19969;-69
2024/01/26 00:28:13;;;;;;;;;;;8.80;99.90;;;;;;5129226;27;19956;-69
2024/01/26 00:30:39;;;;;;;;;;;8.80;99.90;;;;;;5113414;27;19923;-69
2024/01/26 00:33:04;;;;;;;;;;;8.90;99.90;;;;;;5130377;27;19928;-68
2024/01/26 00:35:30;;;;;;;;;;;8.90;99.90;;;;;;5112444;27;19935;-69
2024/01/26 00:37:55;;;;;;;;;;;8.90;99.90;;;;;;5130600;27;20309;-69
2024/01/26 00:40:21;;;;;;;;;;;8.90;99.90;;;;;;5112718;27;20383;-69
2024/01/26 00:42:47;;;;;;;;;;;8.90;99.90;;;;;;5110715;27;19923;-69
2024/01/26 00:45:13;;;;;;;;;;;8.90;99.90;;;;;;5130600;27;19924;-69
2024/01/26 00:47:39;;;;;;;;;;;8.90;99.90;;;;;;5130897;27;19930;-69
2024/01/26 00:50:04;;;;;;;;;;;9.00;99.90;;;;;;5111670;27;19927;-69
2024/01/26 00:52:30;;;;;;;;;;;9.00;99.90;;;;;;5130467;27;20022;-69
2024/01/26 00:54:56;;;;;;;;;;;9.00;99.90;;;;;;5111164;27;19923;-69
2024/01/26 00:57:21;;;;;;;;;;;9.00;99.90;;;;;;5128207;27;19924;-69
2024/01/26 00:59:47;;;;;;;;;;;9.00;99.90;;;;;;5108754;28;20420;-69
2024/01/26 01:02:14;;;;;;;;;;;9.10;99.90;;;;;;5110027;28;19920;-70
2024/01/26 01:04:39;;;;;;;;;;;9.10;99.90;;;;;;5109013;28;19931;-69
2024/01/26 01:07:05;;;;;;;;;;;9.10;99.90;;;;;;5109911;28;19931;-70
2024/01/26 01:09:31;;;;;;;;;;;9.10;99.90;;;;;;5116294;28;20310;-70
2024/01/26 01:11:57;;;;;;;;;;;9.20;99.90;;;;;;5127646;28;20120;-69
2024/01/26 01:14:23;;;;;;;;;;;9.20;99.90;;;;;;5130122;28;20353;-70
2024/01/26 01:16:50;;;;;;;;;;;9.20;99.90;;;;;;5110509;28;19924;-69
2024/01/26 01:19:16;;;;;;;;;;;9.20;99.90;;;;;;5111721;28;19923;-70
2024/01/26 01:21:41;;;;;;;;;;;9.30;99.90;;;;;;5112027;28;20345;-69
2024/01/26 01:24:07;;;;;;;;;;;9.30;99.90;;;;;;5120503;27;20010;-70
2024/01/26 01:26:33;;;;;;;;;;;9.30;99.90;;;;;;5122750;28;20023;-69
2024/01/26 01:28:58;;;;;;;;;;;9.40;99.90;;;;;;5109677;28;19919;-69
2024/01/26 01:31:24;;;;;;;;;;;9.40;99.90;;;;;;5111513;27;19930;-70
2024/01/26 01:33:49;;;;;;;;;;;9.50;99.90;;;;;;5111451;28;19927;-70
2024/01/26 01:36:15;;;;;;;;;;;9.40;99.90;;;;;;5130680;28;20010;-69
2024/01/26 01:38:41;;;;;;;;;;;9.50;99.90;;;;;;5129783;27;20039;-69
2024/01/26 01:41:06;;;;;;;;;;;9.50;99.90;;;;;;5111528;28;19957;-70
2024/01/26 01:43:32;;;;;;;;;;;9.50;99.90;;;;;;5129357;28;20370;-69
2024/01/26 01:45:57;;;;;;;;;;;9.40;99.90;;;;;;5129283;28;19944;-70
2024/01/26 01:48:23;;;;;;;;;;;9.50;99.90;;;;;;5111525;28;19919;-69
2024/01/26 01:50:49;;;;;;;;;;;9.50;99.90;;;;;;5111555;28;19923;-69
2024/01/26 01:53:14;;;;;;;;;;;9.50;99.90;;;;;;5111300;28;19927;-70
2024/01/26 01:55:43;;;;;;;;;;;9.50;99.90;;;;;;5129371;27;19927;-69
2024/01/26 01:58:09;;;;;;;;;;;9.50;99.90;;;;;;5109463;28;20405;-70
2024/01/26 02:00:36;;;;;;;;;;;9.60;99.90;;;;;;5129916;28;20259;-69
2024/01/26 02:03:02;;;;;;;;;;;9.70;99.90;;;;;;5129533;27;19976;-69
2024/01/26 02:05:27;;;;;;;;;;;9.60;99.90;;;;;;5130635;27;19931;-69
2024/01/26 02:07:53;;;;;;;;;;;9.60;99.90;;;;;;5110710;28;20363;-69
2024/01/26 02:10:18;;;;;;;;;;;9.60;99.90;;;;;;5130605;28;19924;-69
2024/01/26 02:12:44;;;;;;;;;;;9.60;99.90;;;;;;5129177;27;20433;-68
2024/01/26 02:15:10;;;;;;;;;;;9.60;99.90;;;;;;5119401;27;19931;-69
2024/01/26 02:17:36;;;;;;;;;;;9.60;99.90;;;;;;5095993;27;20018;-69
2024/01/26 02:20:04;;;;;;;;;;;9.60;99.90;;;;;;5132299;27;19924;-69
2024/01/26 02:22:29;;;;;;;;;;;9.70;99.90;;;;;;5132823;27;20441;-69
2024/01/26 02:24:55;;;;;;;;;;;9.70;99.90;;;;;;5107204;27;20030;-69
2024/01/26 02:27:21;;;;;;;;;;;9.70;99.90;;;;;;5129521;27;19923;-69
2024/01/26 02:29:47;;;;;;;;;;;9.80;99.90;;;;;;5131938;27;19934;-69
2024/01/26 02:32:12;;;;;;;;;;;9.80;99.90;;;;;;5132837;27;20369;-69
2024/01/26 02:34:38;;;;;;;;;;;9.70;99.90;;;;;;5114137;27;19954;-68
2024/01/26 02:37:04;;;;;;;;;;;9.70;99.90;;;;;;5132226;27;20204;-69
2024/01/26 02:39:29;;;;;;;;;;;9.80;99.90;;;;;;5115213;27;19923;-69
2024/01/26 02:41:55;;;;;;;;;;;9.80;99.90;;;;;;5113497;27;20431;-69
2024/01/26 02:44:21;;;;;;;;;;;9.80;99.90;;;;;;5133017;27;19928;-69
2024/01/26 02:46:49;;;;;;;;;;;9.80;99.90;;;;;;5108557;28;19924;-69
2024/01/26 02:49:15;;;;;;;;;;;9.80;99.90;;;;;;5091935;28;19924;-69
2024/01/26 02:51:41;;;;;;;;;;;9.70;99.90;;;;;;5112313;27;20300;-69
2024/01/26 02:54:06;;;;;;;;;;;9.80;99.90;;;;;;5110670;28;20383;-69
2024/01/26 02:56:32;;;;;;;;;;;9.80;99.90;;;;;;5125206;27;19976;-69
2024/01/26 02:58:57;;;;;;;;;;;9.80;99.90;;;;;;5131159;27;20463;-69
2024/01/26 03:01:23;;;;;;;;;;;9.80;99.90;;;;;;5133651;27;19934;-69
2024/01/26 03:03:48;;;;;;;;;;;9.80;99.90;;;;;;5131808;27;19923;-69
2024/01/26 03:06:14;;;;;;;;;;;9.80;99.90;;;;;;5133461;27;19923;-69
2024/01/26 03:08:39;;;;;;;;;;;9.80;99.90;;;;;;5132750;27;19950;-69
2024/01/26 03:11:05;;;;;;;;;;;9.90;99.90;;;;;;5113102;27;20055;-69
2024/01/26 03:13:31;;;;;;;;;;;9.90;99.90;;;;;;5112924;27;20489;-70
2024/01/26 03:15:56;;;;;;;;;;;9.80;99.90;;;;;;5113457;27;19931;-69
2024/01/26 03:18:22;;;;;;;;;;;9.90;99.90;;;;;;5128852;27;19930;-69
2024/01/26 03:20:47;;;;;;;;;;;9.90;99.90;;;;;;5130991;27;19982;-69
2024/01/26 03:23:13;;;;;;;;;;;9.90;99.90;;;;;;5113857;27;20276;-69
2024/01/26 03:25:39;;;;;;;;;;;9.90;99.90;;;;;;5123461;27;19924;-69
2024/01/26 03:28:06;;;;;;;;;;;9.90;99.90;;;;;;5125515;27;19969;-69
2024/01/26 03:30:32;;;;;;;;;;;9.90;99.90;;;;;;5131953;27;20560;-69
2024/01/26 03:32:57;;;;;;;;;;;9.80;99.90;;;;;;5131908;27;19931;-70
2024/01/26 03:35:23;;;;;;;;;;;9.90;99.90;;;;;;5113563;27;19970;-69
2024/01/26 03:37:48;;;;;;;;;;;9.90;99.90;;;;;;5130245;27;19930;-69
2024/01/26 03:40:14;;;;;;;;;;;9.90;99.90;;;;;;5113995;27;20018;-69
2024/01/26 03:42:40;;;;;;;;;;;9.90;99.90;;;;;;5113024;27;19931;-69
2024/01/26 03:45:06;;;;;;;;;;;10.00;99.90;;;;;;5111090;27;19924;-69
2024/01/26 03:47:32;;;;;;;;;;;9.90;99.90;;;;;;5113097;27;20024;-69
2024/01/26 03:49:57;;;;;;;;;;;9.90;99.90;;;;;;5130756;27;20030;-69
2024/01/26 03:52:23;;;;;;;;;;;10.00;99.90;;;;;;5112816;27;19924;-69
2024/01/26 03:54:48;;;;;;;;;;;10.00;99.90;;;;;;5112038;27;19946;-69
2024/01/26 03:57:14;;;;;;;;;;;10.00;99.90;;;;;;5130508;27;19931;-69
2024/01/26 03:59:39;;;;;;;;;;;10.00;99.90;;;;;;5111413;27;19927;-69
2024/01/26 04:02:05;;;;;;;;;;;10.00;99.90;;;;;;5129304;27;19998;-69
2024/01/26 04:04:31;;;;;;;;;;;10.00;99.90;;;;;;5130793;27;19927;-69
2024/01/26 04:06:57;;;;;;;;;;;10.00;99.90;;;;;;5144742;27;20025;-69
2024/01/26 04:09:22;;;;;;;;;;;10.00;99.90;;;;;;5112549;27;20430;-69
2024/01/26 04:11:48;;;;;;;;;;;10.00;99.90;;;;;;5130198;27;20450;-69
2024/01/26 04:14:13;;;;;;;;;;;10.00;99.90;;;;;;5129733;27;20349;-69
2024/01/26 04:16:39;;;;;;;;;;;10.00;99.90;;;;;;5131581;27;19976;-70
2024/01/26 04:19:04;;;;;;;;;;;10.00;99.90;;;;;;5111917;27;19927;-69
2024/01/26 04:21:31;;;;;;;;;;;10.00;99.90;;;;;;5130374;27;19935;-69
2024/01/26 04:23:56;;;;;;;;;;;10.00;99.90;;;;;;5121390;27;19969;-70
2024/01/26 04:26:22;;;;;;;;;;;10.00;99.90;;;;;;5100004;27;19962;-70
2024/01/26 04:28:48;;;;;;;;;;;10.00;99.90;;;;;;5132965;27;19930;-69
2024/01/26 04:31:14;;;;;;;;;;;10.10;99.90;;;;;;5131186;27;19924;-69
2024/01/26 04:33:39;;;;;;;;;;;10.10;99.90;;;;;;5130422;27;19919;-69
2024/01/26 04:36:08;;;;;;;;;;;10.20;99.90;;;;;;5110368;27;19991;-70
2024/01/26 04:38:37;;;;;;;;;;;10.10;99.90;;;;;;5133262;27;20026;-70
2024/01/26 04:41:03;;;;;;;;;;;10.10;99.90;;;;;;5119973;27;19987;-69
2024/01/26 04:43:29;;;;;;;;;;;10.20;99.90;;;;;;5111390;27;19927;-69
2024/01/26 04:45:55;;;;;;;;;;;10.20;99.90;;;;;;5112445;27;19920;-70
2024/01/26 04:48:21;;;;;;;;;;;10.20;99.90;;;;;;5130433;27;20000;-69
2024/01/26 04:50:46;;;;;;;;;;;10.10;99.90;;;;;;5131323;27;19929;-69
2024/01/26 04:53:12;;;;;;;;;;;10.20;99.90;;;;;;5130442;27;19926;-69
2024/01/26 04:55:37;;;;;;;;;;;10.20;99.90;;;;;;5129668;27;19977;-69
2024/01/26 04:58:03;;;;;;;;;;;10.20;99.90;;;;;;5107292;28;19927;-69
2024/01/26 05:00:28;;;;;;;;;;;10.20;99.90;;;;;;5108189;28;19934;-69
2024/01/26 05:02:54;;;;;;;;;;;10.20;99.90;;;;;;5129579;27;19932;-69
2024/01/26 05:05:19;;;;;;;;;;;10.30;99.90;;;;;;5111893;28;19935;-69
2024/01/26 05:07:45;;;;;;;;;;;10.50;99.90;;;;;;5128475;27;20017;-70
2024/01/26 05:10:11;;;;;;;;;;;10.30;99.90;;;;;;5110952;28;19976;-69
2024/01/26 05:12:37;;;;;;;;;;;10.30;99.90;;;;;;5128693;28;19924;-70
2024/01/26 05:15:02;;;;;;;;;;;10.40;99.90;;;;;;5130233;28;19991;-69
2024/01/26 05:17:28;;;;;;;;;;;10.40;99.90;;;;;;5111262;28;20508;-69
2024/01/26 05:19:53;;;;;;;;;;;10.40;99.90;;;;;;5107543;28;20350;-69
2024/01/26 05:22:19;;;;;;;;;;;10.40;99.90;;;;;;5129622;28;19924;-68
2024/01/26 05:24:45;;;;;;;;;;;10.40;99.90;;;;;;5129606;28;19984;-69
2024/01/26 05:27:11;;;;;;;;;;;10.50;99.90;;;;;;5123253;27;19938;-69
2024/01/26 05:29:36;;;;;;;;;;;10.40;99.90;;;;;;5127213;28;20259;-69
2024/01/26 05:32:02;;;;;;;;;;;10.50;99.90;;;;;;5128929;28;19931;-69
2024/01/26 05:34:28;;;;;;;;;;;10.50;99.90;;;;;;5112779;28;20018;-69
2024/01/26 05:36:53;;;;;;;;;;;10.50;99.90;;;;;;5129748;28;19927;-69
2024/01/26 05:39:19;;;;;;;;;;;10.60;99.90;;;;;;5128581;27;19923;-69
2024/01/26 05:41:44;;;;;;;;;;;10.60;99.90;;;;;;5110997;28;20763;-69
2024/01/26 05:44:10;;;;;;;;;;;10.60;99.90;;;;;;5127895;27;19928;-69
2024/01/26 05:46:36;;;;;;;;;;;10.60;99.90;;;;;;5128926;27;20002;-69
2024/01/26 05:49:01;;;;;;;;;;;10.60;99.90;;;;;;5130162;27;19923;-69
2024/01/26 05:51:27;;;;;;;;;;;10.60;99.90;;;;;;5133422;27;19934;-68
2024/01/26 05:53:53;;;;;;;;;;;10.60;99.90;;;;;;5114956;27;19924;-69
2024/01/26 05:56:18;;;;;;;;;;;10.70;99.90;;;;;;5115578;27;19970;-69
2024/01/26 05:58:44;;;;;;;;;;;10.60;99.90;;;;;;5112228;27;19963;-69
2024/01/26 06:01:10;;;;;;;;;;;10.60;99.90;;;;;;5131063;27;20079;-69
2024/01/26 06:03:35;;;;;;;;;;;10.60;99.90;;;;;;5113495;27;19973;-69
2024/01/26 06:06:01;;;;;;;;;;;10.60;99.90;;;;;;5131926;27;19923;-69
2024/01/26 06:08:26;;;;;;;;;;;10.60;99.90;;;;;;5133447;27;20413;-69
2024/01/26 06:10:52;;;;;;;;;;;10.70;99.90;;;;;;5132468;27;20336;-69
2024/01/26 06:13:18;;;;;;;;;;;10.70;99.90;;;;;;5130613;27;19951;-69
2024/01/26 06:15:43;;;;;;;;;;;10.60;99.90;;;;;;5133902;27;19924;-68
2024/01/26 06:18:09;;;;;;;;;;;10.70;99.90;;;;;;5132593;27;19924;-68
2024/01/26 06:20:34;;;;;;;;;;;10.70;99.90;;;;;;5114519;27;19923;-68
2024/01/26 06:23:00;;;;;;;;;;;10.70;99.90;;;;;;5114419;27;20362;-68
2024/01/26 06:25:26;;;;;;;;;;;10.80;99.90;;;;;;5115608;27;19954;-68
2024/01/26 06:27:51;;;;;;;;;;;10.70;99.90;;;;;;5108996;27;19923;-68
2024/01/26 06:30:17;;;;;;;;;;;10.80;99.90;;;;;;5098594;27;19961;-68
2024/01/26 06:32:44;;;;;;;;;;;10.80;99.90;;;;;;5114092;27;19979;-69
2024/01/26 06:35:10;;;;;;;;;;;10.80;99.90;;;;;;5111643;27;20018;-69
2024/01/26 06:37:35;;;;;;;;;;;10.80;99.90;;;;;;5112851;27;19931;-69
2024/01/26 06:40:01;;;;;;;;;;;10.70;99.90;;;;;;5114367;27;19923;-68
2024/01/26 06:42:26;;;;;;;;;;;10.80;99.90;;;;;;5131399;27;19975;-68
2024/01/26 06:44:52;;;;;;;;;;;10.80;99.90;;;;;;5114142;27;19923;-68
2024/01/26 06:47:19;;;;;;;;;;;10.80;99.90;;;;;;5114262;27;20282;-69
2024/01/26 06:49:44;;;;;;;;;;;10.80;99.90;;;;;;5132438;27;19924;-68
2024/01/26 06:52:10;;;;;;;;;;;10.90;99.90;;;;;;5128424;27;20421;-68
2024/01/26 06:54:37;;;;;;;;;;;10.90;99.90;;;;;;5114238;27;20465;-69
2024/01/26 06:57:03;;;;;;;;;;;10.90;99.90;;;;;;5131246;27;19932;-68
2024/01/26 06:59:29;;;;;;;;;;;10.80;99.90;;;;;;5112116;28;20023;-68
2024/01/26 07:01:54;;;;;;;;;;;10.90;99.90;;;;;;5094569;27;20363;-69
2024/01/26 07:04:20;;;;;;;;;;;10.90;99.90;;;;;;5132313;27;20010;-68
2024/01/26 07:06:45;;;;;;;;;;;10.90;99.90;;;;;;5114179;27;20455;-68
2024/01/26 07:09:11;;;;;;;;;;;10.80;99.90;;;;;;5112435;27;19930;-68
2024/01/26 07:11:38;;;;;;;;;;;10.90;99.90;;;;;;5113890;27;19924;-69
2024/01/26 07:14:04;;;;;;;;;;;10.80;99.90;;;;;;5106132;27;19984;-69
2024/01/26 07:16:30;;;;;;;;;;;10.80;99.90;;;;;;5132038;27;20071;-68
2024/01/26 07:18:55;;;;;;;;;;;10.90;99.90;;;;;;5132049;27;19923;-68
2024/01/26 07:21:21;;;;;;;;;;;10.80;99.90;;;;;;5131942;27;19924;-68
2024/01/26 07:23:49;;;;;;;;;;;10.90;99.90;;;;;;5112015;27;20003;-69
2024/01/26 07:26:19;;;;;;;;;;;10.90;99.90;;;;;;5114165;27;19931;-68
2024/01/26 07:28:44;;;;;;;;;;;10.90;99.90;;;;;;5109195;27;20426;-68
2024/01/26 07:31:10;;;;;;;;;;;10.80;99.90;;;;;;5127358;27;19931;-68
2024/01/26 07:33:35;;;;;;;;;;;10.90;99.90;;;;;;5109009;28;19973;-68
2024/01/26 07:36:01;;;;;;;;;;;10.90;99.90;;;;;;5109877;27;20426;-68
2024/01/26 07:38:26;;;;;;;;;;;10.90;99.90;;;;;;5130596;27;20354;-68
2024/01/26 07:40:53;;;;;;;;;;;10.90;99.90;;;;;;5113777;27;19980;-68
2024/01/26 07:43:19;;;;;;;;;;;10.90;99.90;;;;;;5130632;27;19970;-68
2024/01/26 07:45:44;;;;;;;;;;;11.00;99.90;;;;;;5113305;27;20366;-68
2024/01/26 07:48:12;;;;;;;;;;;11.00;99.90;;;;;;5113193;27;19927;-68
2024/01/26 07:50:41;;;;;;;;;;;11.00;99.90;;;;;;5111386;27;20037;-68
2024/01/26 07:53:07;;;;;;;;;;;11.00;99.90;;;;;;5112504;27;19964;-68
2024/01/26 07:55:32;;;;;;;;;;;11.00;99.90;;;;;;5113616;27;19966;-69
2024/01/26 07:57:58;;;;;;;;;;;11.00;99.90;;;;;;5110128;27;19923;-68
2024/01/26 08:00:23;;;;;;;;;;;11.00;99.90;;;;;;5113287;27;19924;-69
2024/01/26 08:02:49;;;;;;;;;;;11.10;99.90;;;;;;5131245;27;19973;-68
2024/01/26 08:05:14;;;;;;;;;;;11.20;99.90;;;;;;5131061;27;19934;-68
2024/01/26 08:07:40;;;;;;;;;;;11.10;99.90;;;;;;5111731;27;19927;-69
2024/01/26 08:10:06;;;;;;;;;;;11.10;99.90;;;;;;5130542;27;19923;-68
2024/01/26 08:12:31;;;;;;;;;;;11.10;99.90;;;;;;5127971;27;19930;-68
2024/01/26 08:14:57;;;;;;;;;;;11.10;99.90;;;;;;5109832;27;19931;-69
2024/01/26 08:17:22;;;;;;;;;;;11.10;99.90;;;;;;5112779;27;19923;-68
2024/01/26 08:19:48;;;;;;;;;;;11.10;99.90;;;;;;5111921;27;19976;-68
2024/01/26 08:22:14;;;;;;;;;;;11.10;99.90;;;;;;5113150;27;20234;-69
2024/01/26 08:24:39;;;;;;;;;;;11.20;99.90;;;;;;5131681;27;20330;-68
2024/01/26 08:27:05;;;;;;;;;;;11.10;99.90;;;;;;5128264;27;19999;-69
2024/01/26 08:29:31;;;;;;;;;;;11.10;99.90;;;;;;5128234;27;19956;-69
2024/01/26 08:31:57;;;;;;;;;;;11.10;99.90;;;;;;5104989;28;19931;-68
2024/01/26 08:34:22;;;;;;;;;;;11.20;99.90;;;;;;5109170;27;19924;-68
2024/01/26 08:36:48;;;;;;;;;;;11.10;99.90;;;;;;5128245;27;19928;-68
2024/01/26 08:39:14;;;;;;;;;;;11.10;99.90;;;;;;5139221;27;19930;-68
2024/01/26 08:41:40;;;;;;;;;;;11.20;99.90;;;;;;5124157;27;20140;-68
2024/01/26 08:44:06;;;;;;;;;;;11.20;99.90;;;;;;5098547;27;19939;-68
2024/01/26 08:46:31;;;;;;;;;;;11.20;99.90;;;;;;5102881;27;19923;-68
2024/01/26 08:48:56;;;;;;;;;;;11.10;99.90;;;;;;5122079;27;19923;-68
2024/01/26 08:51:23;;;;;;;;;;;11.10;99.90;;;;;;5145415;27;19939;-68
2024/01/26 08:53:48;;;;;;;;;;;11.10;99.90;;;;;;5114876;27;19923;-68
2024/01/26 08:56:15;;;;;;;;;;;11.20;99.90;;;;;;5118102;27;20283;-68
2024/01/26 08:58:41;;;;;;;;;;;11.10;99.90;;;;;;5108827;27;20331;-68
2024/01/26 09:01:07;;;;;;;;;;;11.10;99.90;;;;;;5110052;28;19927;-68
2024/01/26 09:03:32;;;;;;;;;;;11.10;99.90;;;;;;5112478;27;19927;-68
2024/01/26 09:05:59;;;;;;;;;;;11.10;99.90;;;;;;5111988;28;19923;-68
2024/01/26 09:08:24;;;;;;;;;;;11.10;99.90;;;;;;5111861;27;20290;-68
2024/01/26 09:10:50;;;;;;;;;;;11.10;99.90;;;;;;5112139;28;19934;-67
2024/01/26 09:13:15;;;;;;;;;;;11.10;99.90;;;;;;5129083;28;19962;-68
2024/01/26 09:15:41;;;;;;;;;;;11.10;99.90;;;;;;5111629;28;19985;-68
2024/01/26 09:18:07;;;;;;;;;;;11.10;99.90;;;;;;5129008;27;20034;-68
2024/01/26 09:20:32;;;;;;;;;;;11.10;99.90;;;;;;5092655;28;19931;-68
2024/01/26 09:22:58;;;;;;;;;;;10.90;99.90;;;;;;5095412;28;20454;-68
2024/01/26 09:25:23;;;;;;;;;;;10.80;99.90;;;;;;5094364;28;20367;-68
2024/01/26 09:27:49;;;;;;;;;;;10.40;99.90;;;;;;5107253;27;19962;-68
2024/01/26 09:30:14;;;;;;;;;;;10.40;99.90;;;;;;5113384;27;20386;-69
2024/01/26 09:32:40;;;;;;;;;;;10.10;99.90;;;;;;5116178;27;20295;-70
2024/01/26 09:35:07;;;;;;;;;;;10.00;99.90;;;;;;5095463;27;19932;-68
2024/01/26 09:37:33;;;;;;;;;;;9.90;99.90;;;;;;5114181;27;19930;-68
2024/01/26 09:39:58;;;;;;;;;;;9.80;99.90;;;;;;5115503;27;20305;-68
2024/01/26 09:42:24;;;;;;;;;;;9.70;99.90;;;;;;5115422;27;20359;-68
2024/01/26 09:44:50;;;;;;;;;;;9.70;99.90;;;;;;5114844;27;19934;-68
2024/01/26 09:47:15;;;;;;;;;;;9.70;99.90;;;;;;5116419;27;20048;-68
2024/01/26 09:50:01;;;;;;;;;;;9.60;99.90;;;;;;5114860;27;20382;-68
2024/01/26 09:52:27;;;;;;;;;;;9.60;99.90;;;;;;5102452;28;19927;-68
2024/01/26 09:54:53;;;;;;;;;;;9.50;99.90;;;;;;5096727;27;20340;-68
2024/01/26 09:57:21;;;;;;;;;;;9.40;99.90;;;;;;5114234;27;19939;-68
2024/01/26 09:59:50;;;;;;;;;;;9.40;99.90;;;;;;5115251;27;20000;-68
2024/01/26 10:02:16;;;;;;;;;;;9.30;99.90;;;;;;5115704;27;19924;-68
2024/01/26 10:04:42;;;;;;;;;;;9.30;99.90;;;;;;5115036;27;19923;-68
2024/01/26 10:07:07;;;;;;;;;;;9.20;99.90;;;;;;5133485;27;19923;-68
2024/01/26 10:09:35;;;;;;;;;;;9.20;99.90;;;;;;5116049;27;19923;-68
2024/01/26 10:12:00;;;;;;;;;;;9.10;99.90;;;;;;5113063;27;19950;-68
2024/01/26 10:14:26;;;;;;;;;;;9.10;99.90;;;;;;5133863;27;19935;-68
2024/01/26 10:16:55;;;;;;;;;;;9.00;99.90;;;;;;5115262;27;19975;-68
2024/01/26 10:19:22;;;;;;;;;;;9.00;99.90;;;;;;5114239;27;20517;-68
2024/01/26 10:21:47;;;;;;;;;;;8.90;99.90;;;;;;5115227;27;19919;-68
2024/01/26 10:24:13;;;;;;;;;;;8.90;99.90;;;;;;5115130;27;19946;-68
2024/01/26 10:26:38;;;;;;;;;;;8.90;99.90;;;;;;5131945;27;20288;-68
2024/01/26 10:29:05;;;;;;;;;;;8.80;99.90;;;;;;5132199;27;20382;-68
2024/01/26 10:31:33;;;;;;;;;;;8.80;99.90;;;;;;5131294;27;19928;-68
2024/01/26 10:34:00;;;;;;;;;;;8.90;99.90;;;;;;5095140;28;19920;-68
2024/01/26 10:36:26;;;;;;;;;;;9.00;99.90;;;;;;5108948;27;20405;-68
2024/01/26 10:38:51;;;;;;;;;;;8.70;99.90;;;;;;5126866;27;19935;-68
2024/01/26 10:41:19;;;;;;;;;;;8.70;99.90;;;;;;5130078;27;19924;-68
2024/01/26 10:43:45;;;;;;;;;;;8.70;99.90;;;;;;5112732;27;20391;-68
2024/01/26 10:46:11;;;;;;;;;;;8.70;99.90;;;;;;5125505;27;19949;-68
2024/01/26 10:48:37;;;;;;;;;;;8.60;99.90;;;;;;5132313;27;19930;-70
2024/01/26 10:51:03;;;;;;;;;;;8.60;99.90;;;;;;5113767;27;20293;-70
2024/01/26 10:53:30;;;;;;;;;;;8.70;99.90;;;;;;5110310;28;19920;-70
2024/01/26 10:55:56;;;;;;;;;;;8.70;99.90;;;;;;5121852;27;19959;-71
2024/01/26 10:58:22;;;;;;;;;;;8.70;99.90;;;;;;5130785;27;19930;-71
2024/01/26 11:00:47;;;;;;;;;;;8.80;99.90;;;;;;5113635;27;20037;-71
2024/01/26 11:03:14;;;;;;;;;;;8.80;99.90;;;;;;5114136;27;20376;-71
2024/01/26 11:05:40;;;;;;;;;;;8.80;99.90;;;;;;5119053;27;19927;-71
2024/01/26 11:08:11;;;;;;;;;;;8.80;99.90;;;;;;5129154;27;19924;-71
2024/01/26 11:10:37;;;;;;;;;;;8.80;99.90;;;;;;5114216;27;20394;-72
2024/01/26 11:13:06;;;;;;;;;;;8.80;99.90;;;;;;5111980;27;19970;-71
2024/01/26 11:15:34;;;;;;;;;;;8.80;99.90;;;;;;5131895;27;19973;-71
2024/01/26 11:18:00;;;;;;;;;;;8.90;99.90;;;;;;5132143;27;19935;-70
2024/01/26 11:20:34;;;;;;;;;;;8.90;99.90;;;;;;5114794;27;19923;-70
2024/01/26 11:23:00;;;;;;;;;;;8.90;99.90;;;;;;5112273;27;19976;-70
2024/01/26 11:25:25;;;;;;;;;;;8.90;99.90;;;;;;5131899;27;20387;-71
2024/01/26 11:28:00;;;;;;;;;;;8.80;99.90;;;;;;5111165;27;19959;-71
2024/01/26 11:30:26;;;;;;;;;;;8.80;99.90;;;;;;5102231;27;19977;-71
2024/01/26 11:32:52;;;;;;;;;;;8.80;99.90;;;;;;5129313;27;19923;-70
2024/01/26 11:35:19;;;;;;;;;;;8.80;99.90;;;;;;5097533;27;20223;-70
2024/01/26 11:37:45;;;;;;;;;;;8.80;99.90;;;;;;5111376;27;19981;-71
2024/01/26 11:40:11;;;;;;;;;;;8.80;99.90;;;;;;5113781;27;19935;-70
2024/01/26 11:42:37;;;;;;;;;;;8.80;99.90;;;;;;5130238;27;19920;-71
2024/01/26 11:45:07;;;;;;;;;;;8.90;99.90;;;;;;5133131;27;20008;-70
2024/01/26 11:47:33;;;;;;;;;;;8.90;99.90;;;;;;5131773;27;19979;-70
2024/01/26 11:49:58;;;;;;;;;;;8.90;99.90;;;;;;5111963;27;19923;-71
2024/01/26 11:52:24;;;;;;;;;;;8.90;99.90;;;;;;5131622;27;19923;-70
2024/01/26 11:54:49;;;;;;;;;;;8.90;99.90;;;;;;5111653;27;19967;-70
2024/01/26 11:57:16;;;;;;;;;;;8.80;99.90;;;;;;5103697;27;19934;-70
2024/01/26 11:59:41;;;;;;;;;;;9.50;99.90;;;;;;5117835;27;19967;-70
2024/01/26 12:02:08;;;;;;;;;;;8.70;99.90;;;;;;5125400;27;19963;-70
2024/01/26 12:04:34;;;;;;;;;;;8.70;99.90;;;;;;5111158;27;19923;-70
2024/01/26 12:07:00;;;;;;;;;;;8.70;99.90;;;;;;5113308;27;19985;-70
2024/01/26 12:09:26;;;;;;;;;;;8.60;99.90;;;;;;5131600;27;19987;-69
2024/01/26 12:11:52;;;;;;;;;;;8.60;99.90;;;;;;5129677;27;19923;-70
2024/01/26 12:14:18;;;;;;;;;;;8.50;99.90;;;;;;5128901;27;20010;-69
2024/01/26 12:16:43;;;;;;;;;;;8.50;99.90;;;;;;5113445;27;20295;-69
2024/01/26 12:19:09;;;;;;;;;;;8.20;99.90;;;;;;5128822;27;19923;-70
2024/01/26 12:21:35;;;;;;;;;;;8.20;99.90;;;;;;5112614;27;20415;-70
2024/01/26 12:24:01;;;;;;;;;;;8.30;99.90;;;;;;5112521;27;19980;-70
2024/01/26 12:26:26;;;;;;;;;;;8.00;99.90;;;;;;5130779;27;19927;-70
2024/01/26 12:28:52;;;;;;;;;;;8.00;99.90;;;;;;5128922;27;20290;-70
2024/01/26 12:31:17;;;;;;;;;;;8.20;99.90;;;;;;5113040;27;19924;-70
2024/01/26 12:33:46;;;;;;;;;;;8.20;99.90;;;;;;5126479;27;19930;-70
2024/01/26 12:36:12;;;;;;;;;;;8.20;99.90;;;;;;5091605;28;19969;-70
2024/01/26 12:38:37;;;;;;;;;;;8.20;99.90;;;;;;5094351;27;19928;-70
2024/01/26 12:41:03;;;;;;;;;;;8.20;99.90;;;;;;5112010;27;20406;-70
2024/01/26 12:43:29;;;;;;;;;;;7.90;99.90;;;;;;5129722;27;19927;-70
2024/01/26 12:45:54;;;;;;;;;;;7.80;99.90;;;;;;5112040;27;19923;-70
2024/01/26 12:48:20;;;;;;;;;;;7.90;99.90;;;;;;5110957;27;20023;-70
2024/01/26 12:50:47;;;;;;;;;;;7.90;99.90;;;;;;5112715;27;19976;-70
2024/01/26 12:53:12;;;;;;;;;;;7.80;99.90;;;;;;5111141;27;19930;-69
2024/01/26 12:55:38;;;;;;;;;;;7.80;99.90;;;;;;5108939;28;19923;-69
2024/01/26 12:58:04;;;;;;;;;;;7.80;99.90;;;;;;5108694;28;19928;-70
2024/01/26 13:00:30;;;;;;;;;;;7.90;99.90;;;;;;5109213;28;19993;-70
2024/01/26 13:03:00;;;;;;;;;;;8.70;99.90;;;;;;5091386;28;20016;-70
2024/01/26 13:05:25;;;;;;;;;;;9.90;99.90;;;;;;5092085;28;19923;-70
2024/01/26 13:07:51;;;;;;;;;;;10.90;99.90;;;;;;5090965;28;19924;-71
2024/01/26 13:10:17;;;;;;;;;;;12.00;99.90;;;;;;5124921;27;20026;-70
2024/01/26 13:12:42;;;;;;;;;;;11.60;99.90;;;;;;5109404;28;19923;-73
2024/01/26 13:15:09;;;;;;;;;;;11.60;99.90;;;;;;5110721;28;20289;-70
2024/01/26 13:17:35;;;;;;;;;;;11.70;99.90;;;;;;5111976;28;19924;-70
2024/01/26 13:20:01;;;;;;;;;;;11.20;99.90;;;;;;5130257;27;19924;-70
2024/01/26 13:22:26;;;;;;;;;;;10.70;99.90;;;;;;5111711;28;20027;-70
2024/01/26 13:24:54;;;;;;;;;;;10.30;99.90;;;;;;5111695;28;19923;-70
2024/01/26 13:27:19;;;;;;;;;;;9.80;99.90;;;;;;5111419;28;19956;-70
2024/01/26 13:29:46;;;;;;;;;;;9.40;99.90;;;;;;5110899;28;19919;-70
2024/01/26 13:32:11;;;;;;;;;;;9.20;99.90;;;;;;5111851;28;20402;-71
2024/01/26 13:34:37;;;;;;;;;;;9.00;99.90;;;;;;5109635;28;19978;-70
2024/01/26 13:37:02;;;;;;;;;;;8.80;99.90;;;;;;5108252;28;20368;-70
2024/01/26 13:39:28;;;;;;;;;;;8.60;99.90;;;;;;5098938;28;19924;-70
2024/01/26 13:41:54;;;;;;;;;;;8.60;99.90;;;;;;5129270;28;19924;-71
2024/01/26 13:44:20;;;;;;;;;;;8.30;99.90;;;;;;5110845;28;19931;-70
2024/01/26 13:46:46;;;;;;;;;;;8.40;99.90;;;;;;5130362;28;20371;-70
2024/01/26 13:49:11;;;;;;;;;;;8.30;99.90;;;;;;5112099;28;19924;-70
2024/01/26 13:51:37;;;;;;;;;;;7.90;99.90;;;;;;5106624;28;19924;-70
2024/01/26 13:54:03;;;;;;;;;;;8.40;99.90;;;;;;5090885;28;20465;-71
2024/01/26 13:56:28;;;;;;;;;;;8.00;99.90;;;;;;5107399;28;19946;-71
2024/01/26 13:58:54;;;;;;;;;;;8.00;99.90;;;;;;5110443;28;19969;-71
2024/01/26 14:01:19;;;;;;;;;;;8.00;99.90;;;;;;5130514;28;19924;-70
2024/01/26 14:03:45;;;;;;;;;;;8.00;99.90;;;;;;5129512;27;19924;-70
2024/01/26 14:06:10;;;;;;;;;;;8.00;99.90;;;;;;5130376;27;19924;-71
2024/01/26 14:08:36;;;;;;;;;;;8.00;99.90;;;;;;5110517;27;19959;-70
2024/01/26 14:11:02;;;;;;;;;;;8.00;99.90;;;;;;5113409;27;20021;-71
2024/01/26 14:13:28;;;;;;;;;;;7.90;99.90;;;;;;5113870;27;19928;-71
2024/01/26 14:15:55;;;;;;;;;;;7.90;99.90;;;;;;5133322;27;19966;-71